createdAt,value
2018-09-11T00:02:29.601Z,66.50
2018-09-11T00:05:33.902Z,66.00
2018-09-11T00:08:38.000Z,67.10
2018-09-11T00:11:43.276Z,66.40
2018-09-11T00:14:47.657Z,66.20
2018-09-11T00:17:51.828Z,66.40
2018-09-11T00:20:56.095Z,67.00
2018-09-11T00:24:00.238Z,67.30
2018-09-11T00:27:04.745Z,67.90
2018-09-11T00:30:08.881Z,68.30
2018-09-11T00:33:13.273Z,67.50
2018-09-11T00:36:17.895Z,67.60
2018-09-11T00:39:23.434Z,67.30
2018-09-11T00:42:27.567Z,67.00
2018-09-11T00:45:31.887Z,66.90
2018-09-11T00:48:36.183Z,66.90
2018-09-11T00:51:40.455Z,67.00
2018-09-11T00:54:44.860Z,67.00
2018-09-11T00:57:48.999Z,66.90
2018-09-11T01:00:53.306Z,67.10
2018-09-11T01:03:57.635Z,67.10
2018-09-11T01:07:01.723Z,67.10
2018-09-11T01:10:07.891Z,66.50
2018-09-11T01:13:12.245Z,66.50
2018-09-11T01:16:16.552Z,66.20
2018-09-11T01:19:20.733Z,66.40
2018-09-11T01:22:25.072Z,66.30
2018-09-11T01:25:29.410Z,66.40
2018-09-11T01:28:33.721Z,66.20
2018-09-11T01:31:37.833Z,65.90
2018-09-11T01:34:42.139Z,66.30
2018-09-11T01:37:47.421Z,66.40
2018-09-11T01:40:51.602Z,66.80
2018-09-11T01:43:59.296Z,67.00
2018-09-11T01:47:03.969Z,67.20
2018-09-11T01:50:08.618Z,66.90
2018-09-11T01:53:12.898Z,67.40
2018-09-11T01:56:18.713Z,67.50
2018-09-11T01:59:23.290Z,67.70
2018-09-11T02:02:27.971Z,67.40
2018-09-11T02:05:32.447Z,67.20
2018-09-11T02:08:36.931Z,66.90
2018-09-11T02:11:42.127Z,66.80
2018-09-11T02:14:46.824Z,66.60
2018-09-11T02:17:51.591Z,66.40
2018-09-11T02:20:56.283Z,66.80
2018-09-11T02:24:01.289Z,66.60
2018-09-11T02:27:07.370Z,66.20
2018-09-11T02:30:13.054Z,66.30
2018-09-11T02:33:18.094Z,66.30
2018-09-11T02:36:22.660Z,65.90
2018-09-11T02:39:28.156Z,66.20
2018-09-11T02:42:34.708Z,66.30
2018-09-11T02:45:40.770Z,66.20
2018-09-11T02:48:45.571Z,66.20
2018-09-11T02:51:51.078Z,66.30
2018-09-11T02:54:56.008Z,66.30
2018-09-11T02:58:00.519Z,66.40
2018-09-11T03:01:06.265Z,66.30
2018-09-11T03:04:11.460Z,66.40
2018-09-11T03:07:16.584Z,66.30
2018-09-11T03:10:21.344Z,66.40
2018-09-11T03:13:25.774Z,65.80
2018-09-11T03:16:31.719Z,65.90
2018-09-11T03:19:36.367Z,65.70
2018-09-11T03:22:43.750Z,65.20
2018-09-11T03:25:48.867Z,65.30
2018-09-11T03:28:54.439Z,65.50
2018-09-11T03:31:59.831Z,64.50
2018-09-11T03:35:05.231Z,65.20
2018-09-11T03:38:10.339Z,65.50
2018-09-11T03:41:16.063Z,65.80
2018-09-11T03:44:21.751Z,65.00
2018-09-11T03:47:27.867Z,64.90
2018-09-11T03:50:32.742Z,64.90
2018-09-11T03:53:39.810Z,64.40
2018-09-11T03:56:45.430Z,64.10
2018-09-11T03:59:54.188Z,64.30
2018-09-11T04:02:59.126Z,65.10
2018-09-11T04:06:05.402Z,64.60
2018-09-11T04:09:13.413Z,64.70
2018-09-11T04:12:20.312Z,65.20
2018-09-11T04:15:26.217Z,65.30
2018-09-11T04:18:32.317Z,65.70
2018-09-11T04:21:37.510Z,64.80
2018-09-11T04:24:41.875Z,64.60
2018-09-11T04:27:47.727Z,64.40
2018-09-11T04:30:52.873Z,63.80
2018-09-11T04:33:58.567Z,64.00
2018-09-11T04:37:03.562Z,63.40
2018-09-11T04:40:09.107Z,62.50
2018-09-11T04:43:13.529Z,62.90
2018-09-11T04:46:18.576Z,62.60
2018-09-11T04:49:23.191Z,62.50
2018-09-11T04:52:28.482Z,63.40
2018-09-11T04:55:33.489Z,62.30
2018-09-11T04:58:39.049Z,61.60
2018-09-11T05:01:44.532Z,62.30
2018-09-11T05:04:49.149Z,62.40
2018-09-11T05:07:54.012Z,62.20
2018-09-11T05:10:59.280Z,62.00
2018-09-11T05:14:04.627Z,61.50
2018-09-11T05:17:08.811Z,61.60
2018-09-11T05:20:13.506Z,61.50
2018-09-11T05:23:19.137Z,61.40
2018-09-11T05:26:24.213Z,61.10
2018-09-11T05:29:28.553Z,61.40
2018-09-11T05:32:32.690Z,61.30
2018-09-11T05:35:37.121Z,60.80
2018-09-11T05:38:41.442Z,60.20
2018-09-11T05:41:45.669Z,60.30
2018-09-11T05:44:49.912Z,60.00
2018-09-11T05:47:54.177Z,59.80
2018-09-11T05:50:58.483Z,59.50
2018-09-11T05:54:02.901Z,59.10
2018-09-11T05:57:07.466Z,59.20
2018-09-11T06:00:11.854Z,59.70
2018-09-11T06:03:16.115Z,59.40
2018-09-11T06:06:20.585Z,58.90
2018-09-11T06:09:25.086Z,58.50
2018-09-11T06:12:29.458Z,58.10
2018-09-11T06:15:33.781Z,57.30
2018-09-11T06:18:38.153Z,56.50
2018-09-11T06:21:42.650Z,56.20
2018-09-11T06:24:46.958Z,55.90
2018-09-11T06:27:51.418Z,55.20
2018-09-11T06:30:55.694Z,54.50
2018-09-11T06:34:00.046Z,53.20
2018-09-11T06:37:04.230Z,52.50
2018-09-11T06:40:09.065Z,51.70
2018-09-11T06:43:13.462Z,51.10
2018-09-11T06:46:19.027Z,51.40
2018-09-11T06:49:23.338Z,51.20
2018-09-11T06:52:27.617Z,51.10
2018-09-11T06:55:31.954Z,50.20
2018-09-11T06:58:36.281Z,50.30
2018-09-11T07:01:40.387Z,50.10
2018-09-11T07:04:44.571Z,49.80
2018-09-11T07:07:48.814Z,49.80
2018-09-11T07:10:53.085Z,48.70
2018-09-11T07:13:57.345Z,47.70
2018-09-11T07:17:01.674Z,48.00
2018-09-11T07:20:07.385Z,47.00
2018-09-11T07:23:11.427Z,47.10
2018-09-11T07:26:15.679Z,46.50
2018-09-11T07:29:20.026Z,45.80
2018-09-11T07:32:24.541Z,45.20
2018-09-11T07:35:28.969Z,44.10
2018-09-11T07:38:33.187Z,44.00
2018-09-11T07:41:37.598Z,43.40
2018-09-11T07:44:41.846Z,42.80
2018-09-11T07:47:46.129Z,42.30
2018-09-11T07:50:50.599Z,40.90
2018-09-11T07:53:55.502Z,40.80
2018-09-11T07:56:59.737Z,40.30
2018-09-11T08:00:04.485Z,39.20
2018-09-11T08:03:08.928Z,38.40
2018-09-11T08:06:13.293Z,38.00
2018-09-11T08:09:17.765Z,37.60
2018-09-11T08:12:22.549Z,37.60
2018-09-11T08:15:26.911Z,38.70
2018-09-11T08:18:31.136Z,38.70
2018-09-11T08:21:35.303Z,35.70
2018-09-11T08:24:39.628Z,32.90
2018-09-11T08:27:44.029Z,31.00
2018-09-11T08:30:48.523Z,29.50
2018-09-11T08:33:53.755Z,27.90
2018-09-11T08:36:58.047Z,26.20
2018-09-11T08:40:02.668Z,24.50
2018-09-11T08:43:08.523Z,23.60
2018-09-11T08:46:12.877Z,22.20
2018-09-11T08:49:18.505Z,21.80
2018-09-11T08:52:27.605Z,21.40
2018-09-11T08:55:31.866Z,20.90
2018-09-11T08:58:36.386Z,20.20
2018-09-11T09:01:40.888Z,19.60
2018-09-11T09:04:45.195Z,18.30
2018-09-11T09:07:49.751Z,17.10
2018-09-11T09:10:54.001Z,16.40
2018-09-11T09:13:59.902Z,15.30
2018-09-11T09:17:04.323Z,15.00
2018-09-11T09:20:08.869Z,13.70
2018-09-11T09:23:12.736Z,13.60
2018-09-11T09:26:16.672Z,13.40
2018-09-11T09:29:20.562Z,13.20
2018-09-11T09:32:24.481Z,13.50
2018-09-11T09:35:28.383Z,14.00
2018-09-11T09:38:32.254Z,14.70
2018-09-11T09:41:36.188Z,15.80
2018-09-11T09:44:40.096Z,16.20
2018-09-11T09:47:44.128Z,17.00
2018-09-11T09:50:48.047Z,16.90
2018-09-11T09:53:52.538Z,16.10
2018-09-11T09:56:56.499Z,16.10
2018-09-11T10:00:00.428Z,16.60
2018-09-11T10:03:04.342Z,16.40
2018-09-11T10:06:08.221Z,17.10
2018-09-11T10:09:13.232Z,18.00
2018-09-11T10:12:17.203Z,19.00
2018-09-11T10:15:21.394Z,19.50
2018-09-11T10:18:25.670Z,20.20
2018-09-11T10:21:30.004Z,21.00
2018-09-11T10:24:34.870Z,22.80
2018-09-11T10:27:39.003Z,22.90
2018-09-11T10:30:43.505Z,23.40
2018-09-11T10:33:47.532Z,23.40
2018-09-11T10:36:52.301Z,24.30
2018-09-11T10:39:56.329Z,25.40
2018-09-11T10:43:00.735Z,25.40
2018-09-11T10:46:05.022Z,24.70
2018-09-11T10:49:09.811Z,24.40
2018-09-11T10:52:14.305Z,23.80
2018-09-11T10:55:18.196Z,24.80
2018-09-11T10:58:22.102Z,25.80
2018-09-11T11:01:26.077Z,25.80
2018-09-11T11:04:30.068Z,26.30
2018-09-11T11:07:34.048Z,27.00
2018-09-11T11:10:38.179Z,25.60
2018-09-11T11:13:42.177Z,25.90
2018-09-11T11:16:46.081Z,26.00
2018-09-11T11:19:50.433Z,25.60
2018-09-11T11:22:54.322Z,26.10
2018-09-11T11:25:58.661Z,25.80
2018-09-11T11:29:02.588Z,26.30
2018-09-11T11:32:07.184Z,25.50
2018-09-11T11:35:11.714Z,25.80
2018-09-11T11:38:16.234Z,25.90
2018-09-11T11:41:21.058Z,24.70
2018-09-11T11:44:25.486Z,25.30
2018-09-11T11:47:29.370Z,26.20
2018-09-11T11:50:34.142Z,25.60
2018-09-11T11:53:38.262Z,25.90
2018-09-11T11:56:42.719Z,26.50
2018-09-11T11:59:46.600Z,25.90
2018-09-11T12:02:50.558Z,25.00
2018-09-11T12:05:54.409Z,25.20
2018-09-11T12:08:58.316Z,24.90
2018-09-11T12:12:02.213Z,25.20
2018-09-11T12:15:06.674Z,24.70
2018-09-11T12:18:10.918Z,24.80
2018-09-11T12:21:15.969Z,24.60
2018-09-11T12:24:20.245Z,24.50
2018-09-11T12:27:24.659Z,24.80
2018-09-11T12:30:28.902Z,25.30
2018-09-11T12:33:34.022Z,25.00
2018-09-11T12:36:38.148Z,24.80
2018-09-11T12:39:42.679Z,24.40
2018-09-11T12:42:47.074Z,24.60
2018-09-11T12:45:51.377Z,24.50
2018-09-11T12:48:55.158Z,24.70
2018-09-11T12:51:59.126Z,24.90
2018-09-11T12:55:03.044Z,24.60
2018-09-11T12:58:07.310Z,24.90
2018-09-11T13:01:11.499Z,24.80
2018-09-11T13:04:15.780Z,25.00
2018-09-11T13:07:20.187Z,25.10
2018-09-11T13:10:24.498Z,24.80
2018-09-11T13:13:28.543Z,24.80
2018-09-11T13:16:32.473Z,24.80
2018-09-11T13:19:36.751Z,25.20
2018-09-11T13:22:41.343Z,25.90
2018-09-11T13:25:45.889Z,26.70
2018-09-11T13:28:51.479Z,27.60
2018-09-11T13:31:55.934Z,26.20
2018-09-11T13:35:00.334Z,26.60
2018-09-11T13:38:04.667Z,27.00
2018-09-11T13:41:08.818Z,27.40
2018-09-11T13:44:13.253Z,27.50
2018-09-11T13:47:17.569Z,27.30
2018-09-11T13:50:21.728Z,27.10
2018-09-11T13:53:25.945Z,27.60
2018-09-11T13:56:30.081Z,27.90
2018-09-11T13:59:34.137Z,27.90
2018-09-11T14:02:38.501Z,27.80
2018-09-11T14:05:42.908Z,27.80
2018-09-11T14:08:47.130Z,28.40
2018-09-11T14:11:51.330Z,27.90
2018-09-11T14:14:55.753Z,28.10
2018-09-11T14:17:59.684Z,28.20
2018-09-11T14:21:03.653Z,28.60
2018-09-11T14:24:07.568Z,28.70
2018-09-11T14:27:11.776Z,28.80
2018-09-11T14:30:15.718Z,29.20
2018-09-11T14:33:20.148Z,29.50
2018-09-11T14:36:24.067Z,29.20
2018-09-11T14:39:28.542Z,29.20
2018-09-11T14:42:32.939Z,29.20
2018-09-11T14:45:37.394Z,29.50
2018-09-11T14:48:41.629Z,29.20
2018-09-11T14:51:45.953Z,29.20
2018-09-11T14:54:50.254Z,29.30
2018-09-11T14:57:54.592Z,29.60
2018-09-11T15:00:58.797Z,29.80
2018-09-11T15:04:02.687Z,29.90
2018-09-11T15:07:06.977Z,30.00
2018-09-11T15:10:11.251Z,30.00
2018-09-11T15:13:15.595Z,30.10
2018-09-11T15:16:19.814Z,29.70
2018-09-11T15:19:24.038Z,30.10
2018-09-11T15:22:29.360Z,29.90
2018-09-11T15:25:33.799Z,29.70
2018-09-11T15:28:37.896Z,30.00
2018-09-11T15:31:42.094Z,30.00
2018-09-11T15:34:46.425Z,30.00
2018-09-11T15:37:50.712Z,30.50
2018-09-11T15:40:54.712Z,30.70
2018-09-11T15:43:58.731Z,31.10
2018-09-11T15:47:03.749Z,31.90
2018-09-11T15:50:08.099Z,32.30
2018-09-11T15:53:12.400Z,32.70
2018-09-11T15:56:17.706Z,32.70
2018-09-11T15:59:21.715Z,32.90
2018-09-11T16:02:25.830Z,33.00
2018-09-11T16:05:29.878Z,33.40
2018-09-11T16:08:34.220Z,33.40
2018-09-11T16:11:38.502Z,34.20
2018-09-11T16:14:42.786Z,34.50
2018-09-11T16:17:46.701Z,34.40
2018-09-11T16:20:51.914Z,34.40
2018-09-11T16:23:56.295Z,34.60
2018-09-11T16:27:00.569Z,34.50
2018-09-11T16:30:05.090Z,35.30
2018-09-11T16:33:09.518Z,35.50
2018-09-11T16:36:13.824Z,35.80
2018-09-11T16:39:18.154Z,36.20
2018-09-11T16:42:22.365Z,35.80
2018-09-11T16:45:26.818Z,36.40
2018-09-11T16:48:31.050Z,37.30
2018-09-11T16:51:35.723Z,37.60
2018-09-11T16:54:40.160Z,38.10
2018-09-11T16:57:44.725Z,38.70
2018-09-11T17:00:49.306Z,39.00
2018-09-11T17:03:53.741Z,39.10
2018-09-11T17:06:58.114Z,39.50
2018-09-11T17:10:02.410Z,40.50
2018-09-11T17:13:06.869Z,41.40
2018-09-11T17:16:11.097Z,42.30
2018-09-11T17:19:15.501Z,43.40
2018-09-11T17:22:19.766Z,44.40
2018-09-11T17:25:24.276Z,45.80
2018-09-11T17:28:29.476Z,47.10
2018-09-11T17:31:33.713Z,48.70
2018-09-11T17:34:38.464Z,48.90
2018-09-11T17:37:42.774Z,50.00
2018-09-11T17:40:46.951Z,51.00
2018-09-11T17:43:51.549Z,51.50
2018-09-11T17:46:55.960Z,52.20
2018-09-11T17:50:00.589Z,52.70
2018-09-11T17:53:05.160Z,53.10
2018-09-11T17:56:09.503Z,53.50
2018-09-11T17:59:14.640Z,54.00
2018-09-11T18:02:19.143Z,54.10
2018-09-11T18:05:23.516Z,54.30
2018-09-11T18:08:28.067Z,54.20
2018-09-11T18:11:32.491Z,54.40
2018-09-11T18:14:37.028Z,54.50
2018-09-11T18:17:41.653Z,54.80
2018-09-11T18:20:46.097Z,54.80
2018-09-11T18:23:50.435Z,55.00
2018-09-11T18:26:54.884Z,55.10
2018-09-11T18:29:59.353Z,55.30
2018-09-11T18:33:05.575Z,55.30
2018-09-11T18:36:09.737Z,55.50
2018-09-11T18:39:14.654Z,55.80
2018-09-11T18:42:18.888Z,56.30
2018-09-11T18:45:24.463Z,56.40
2018-09-11T18:48:28.813Z,56.70
2018-09-11T18:51:34.121Z,56.70
2018-09-11T18:54:38.458Z,56.70
2018-09-11T18:57:43.678Z,57.00
2018-09-11T19:00:48.107Z,56.90
2018-09-11T19:03:52.630Z,57.20
2018-09-11T19:06:57.055Z,57.50
2018-09-11T19:10:04.165Z,57.80
2018-09-11T19:13:08.494Z,57.80
2018-09-11T19:16:13.044Z,57.90
2018-09-11T19:19:17.499Z,57.70
2018-09-11T19:22:21.758Z,57.80
2018-09-11T19:25:26.104Z,58.00
2018-09-11T19:28:30.147Z,58.00
2018-09-11T19:31:34.415Z,58.10
2018-09-11T19:34:38.767Z,58.10
2018-09-11T19:37:43.237Z,59.00
2018-09-11T19:40:47.618Z,58.60
2018-09-11T19:43:51.962Z,58.90
2018-09-11T19:46:56.237Z,58.90
2018-09-11T19:50:00.457Z,58.70
2018-09-11T19:53:04.676Z,58.20
2018-09-11T19:56:09.126Z,58.20
2018-09-11T19:59:14.171Z,58.30
2018-09-11T20:02:18.531Z,58.30
2018-09-11T20:05:22.935Z,58.70
2018-09-11T20:08:27.458Z,58.80
2018-09-11T20:11:31.942Z,59.00
2018-09-11T20:14:36.274Z,59.60
2018-09-11T20:17:40.649Z,59.90
2018-09-11T20:20:45.158Z,60.10
2018-09-11T20:23:49.453Z,60.50
2018-09-11T20:26:53.851Z,60.50
2018-09-11T20:29:58.301Z,60.80
2018-09-11T20:33:02.645Z,60.60
2018-09-11T20:36:07.033Z,60.10
2018-09-11T20:39:12.400Z,60.00
2018-09-11T20:42:16.782Z,60.00
2018-09-11T20:45:21.348Z,60.40
2018-09-11T20:48:25.755Z,60.60
2018-09-11T20:51:29.934Z,60.70
2018-09-11T20:54:34.280Z,60.40
2018-09-11T20:57:38.469Z,60.80
2018-09-11T21:00:42.538Z,61.30
2018-09-11T21:03:46.827Z,61.70
2018-09-11T21:06:51.198Z,61.70
2018-09-11T21:09:55.695Z,61.90
2018-09-11T21:12:59.882Z,61.90
2018-09-11T21:16:04.287Z,62.00
2018-09-11T21:19:08.562Z,62.00
2018-09-11T21:22:12.862Z,61.80
2018-09-11T21:25:17.188Z,61.90
2018-09-11T21:28:21.037Z,61.90
2018-09-11T21:31:25.142Z,62.10
2018-09-11T21:34:29.472Z,62.60
2018-09-11T21:37:33.606Z,63.10
2018-09-11T21:40:37.773Z,63.10
2018-09-11T21:43:42.092Z,62.90
2018-09-11T21:46:46.438Z,62.90
2018-09-11T21:49:50.870Z,62.90
2018-09-11T21:52:55.042Z,63.10
2018-09-11T21:55:59.890Z,63.00
2018-09-11T21:59:04.756Z,62.30
2018-09-11T22:02:08.894Z,62.10
2018-09-11T22:05:13.624Z,62.20
2018-09-11T22:08:17.997Z,62.50
2018-09-11T22:11:21.863Z,62.60
2018-09-11T22:14:26.204Z,62.60
2018-09-11T22:17:31.047Z,63.00
2018-09-11T22:20:35.367Z,63.20
2018-09-11T22:23:39.700Z,63.20
2018-09-11T22:26:43.691Z,63.50
2018-09-11T22:29:48.125Z,63.80
2018-09-11T22:32:52.051Z,64.20
2018-09-11T22:35:56.222Z,64.00
2018-09-11T22:39:00.529Z,64.00
2018-09-11T22:42:04.846Z,64.10
2018-09-11T22:45:09.282Z,64.80
2018-09-11T22:48:13.481Z,65.20
2018-09-11T22:51:18.607Z,65.10
2018-09-11T22:54:22.872Z,65.30
2018-09-11T22:57:27.095Z,65.70
2018-09-11T23:00:31.544Z,65.80
2018-09-11T23:03:35.761Z,66.00
2018-09-11T23:06:40.072Z,65.80
2018-09-11T23:09:44.386Z,65.30
2018-09-11T23:12:48.233Z,65.20
2018-09-11T23:15:52.125Z,65.00
2018-09-11T23:18:55.991Z,65.10
2018-09-11T23:22:00.179Z,65.10
2018-09-11T23:25:05.469Z,65.20
2018-09-11T23:28:09.770Z,65.30
2018-09-11T23:31:14.018Z,65.50
2018-09-11T23:34:18.342Z,65.50
2018-09-11T23:37:22.656Z,65.20
2018-09-11T23:40:26.961Z,65.40
2018-09-11T23:43:31.268Z,65.70
2018-09-11T23:46:35.394Z,65.60
2018-09-11T23:49:39.749Z,65.80
2018-09-11T23:52:44.131Z,65.80
2018-09-11T23:55:48.441Z,65.80
2018-09-11T23:58:52.838Z,66.00
